Time;durP1;ratioP1;P1;durP2;ratioP2;P2;SDS_P1;SDS_P2;PMS_P1;PMS_P2;Temp;Humidity;BMP_temperature;BMP_pressure;BME280_temperature;BME280_humidity;BME280_pressure;Samples;Min_cycle;Max_cycle;Signal;HPM_P1;HPM_P2
2022/08/06 00:01:39;;;;;;;8.83;5.63;;;13.30;99.90;;;;;;2608400;54;20166;-78
2022/08/06 00:04:05;;;;;;;12.10;5.70;;;13.40;99.90;;;;;;2608936;54;20699;-78
2022/08/06 00:06:31;;;;;;;7.57;5.80;;;13.20;99.90;;;;;;2608721;46;20184;-78
2022/08/06 00:08:56;;;;;;;6.00;5.53;;;13.30;99.90;;;;;;2607667;46;20193;-78
2022/08/06 00:11:22;;;;;;;8.30;6.10;;;13.20;99.90;;;;;;2607437;39;20244;-78
2022/08/06 00:13:47;;;;;;;6.63;6.03;;;13.00;99.90;;;;;;2607731;54;20166;-78
2022/08/06 00:16:13;;;;;;;6.20;5.23;;;13.10;99.90;;;;;;2608885;39;20238;-78
2022/08/06 00:18:39;;;;;;;7.20;6.27;;;12.80;99.90;;;;;;2608623;54;20190;-79
2022/08/06 00:21:04;;;;;;;6.17;5.67;;;12.90;99.90;;;;;;2609161;31;20401;-78
2022/08/06 00:23:30;;;;;;;6.27;5.77;;;12.90;99.90;;;;;;2608321;54;20159;-78
2022/08/06 00:25:56;;;;;;;7.83;5.90;;;12.90;99.90;;;;;;2608581;54;20171;-78
2022/08/06 00:28:24;;;;;;;8.00;6.00;;;12.80;99.90;;;;;;2608424;54;20690;-78
2022/08/06 00:30:49;;;;;;;7.07;6.37;;;12.70;99.90;;;;;;2608786;47;20543;-78
2022/08/06 00:33:15;;;;;;;5.83;5.53;;;12.70;99.90;;;;;;2608730;39;20567;-78
2022/08/06 00:35:42;;;;;;;6.23;5.77;;;12.70;99.90;;;;;;2608952;54;20175;-78
2022/08/06 00:38:07;;;;;;;7.10;5.90;;;12.70;99.90;;;;;;2608803;54;20174;-79
2022/08/06 00:40:33;;;;;;;6.60;6.10;;;12.60;99.90;;;;;;2607965;54;20522;-78
2022/08/06 00:43:00;;;;;;;9.00;5.60;;;12.60;99.90;;;;;;2607760;54;20166;-79
2022/08/06 00:45:26;;;;;;;7.37;6.67;;;12.50;99.90;;;;;;2608395;54;20184;-78
2022/08/06 00:47:52;;;;;;;7.17;6.57;;;12.50;99.90;;;;;;2608991;39;20642;-79
2022/08/06 00:50:18;;;;;;;6.83;6.20;;;12.50;99.90;;;;;;2608770;39;20213;-78
2022/08/06 00:52:45;;;;;;;7.80;6.27;;;12.50;99.90;;;;;;2611213;54;20430;-78
2022/08/06 00:55:11;;;;;;;6.60;6.10;;;12.40;99.90;;;;;;2613982;54;20188;-80
2022/08/06 00:57:37;;;;;;;7.10;6.50;;;12.30;99.90;;;;;;2614636;54;20406;-80
2022/08/06 01:00:05;;;;;;;7.57;6.77;;;12.30;99.90;;;;;;2612564;54;20472;-82
2022/08/06 01:02:31;;;;;;;7.87;6.50;;;12.20;99.90;;;;;;2614018;54;20418;-77
2022/08/06 01:04:57;;;;;;;7.37;6.77;;;12.10;99.90;;;;;;2613021;54;20407;-77
2022/08/06 01:07:23;;;;;;;9.50;6.43;;;12.20;99.90;;;;;;2612783;54;20695;-77
2022/08/06 01:09:49;;;;;;;6.90;6.23;;;12.20;99.90;;;;;;2610373;54;20162;-77
2022/08/06 01:12:15;;;;;;;7.90;7.17;;;12.10;99.90;;;;;;2614710;39;20607;-78
2022/08/06 01:14:41;;;;;;;9.30;6.53;;;12.10;99.90;;;;;;2614410;54;20419;-78
2022/08/06 01:17:34;;;;;;;7.00;6.30;;;12.00;99.90;;;;;;2615608;54;20402;-87
2022/08/06 01:20:18;;;;;;;10.33;6.60;;;11.90;99.90;;;;;;2613290;54;20215;-87
2022/08/06 01:23:01;;;;;;;6.40;5.90;;;11.90;99.90;;;;;;2614211;39;20924;-87
2022/08/06 01:26:11;;;;;;;8.70;6.77;;;11.60;99.90;;;;;;2610854;54;20431;-81
2022/08/06 01:28:48;;;;;;;12.03;6.70;;;11.50;99.90;;;;;;2612438;54;20438;-82
2022/08/06 01:31:20;;;;;;;8.20;7.33;;;11.40;99.90;;;;;;2611574;54;20952;-79
2022/08/06 01:33:51;;;;;;;7.50;6.80;;;11.60;99.90;;;;;;2612942;54;20410;-78
2022/08/06 01:36:24;;;;;;;6.63;6.13;;;11.60;99.90;;;;;;2613081;39;20944;-80
2022/08/06 01:38:52;;;;;;;7.33;6.10;;;11.60;99.90;;;;;;2612893;54;21384;-80
2022/08/06 01:41:38;;;;;;;7.80;7.10;;;11.60;99.90;;;;;;2606353;54;20441;-79
2022/08/06 01:44:07;;;;;;;12.83;8.43;;;11.60;99.90;;;;;;2606774;54;20393;-80
2022/08/06 01:46:36;;;;;;;7.90;7.20;;;11.70;99.90;;;;;;2606787;54;20418;-79
2022/08/06 01:49:03;;;;;;;7.77;7.20;;;11.70;99.90;;;;;;2606882;54;20550;-80
2022/08/06 01:51:31;;;;;;;7.93;7.23;;;11.70;99.90;;;;;;2606730;54;20481;-79
2022/08/06 01:53:59;;;;;;;7.63;6.93;;;11.60;99.90;;;;;;2607200;39;20501;-80
2022/08/06 01:56:26;;;;;;;8.40;7.53;;;11.60;99.90;;;;;;2605889;54;20669;-80
2022/08/06 01:58:55;;;;;;;8.20;7.40;;;11.60;99.90;;;;;;2605518;39;20532;-80
2022/08/06 02:01:23;;;;;;;7.73;6.97;;;11.60;99.90;;;;;;2606042;54;20435;-79
2022/08/06 02:03:55;;;;;;;8.37;7.63;;;11.50;99.90;;;;;;2607385;54;20524;-79
2022/08/06 02:06:25;;;;;;;7.97;7.03;;;11.40;99.90;;;;;;2609132;39;20871;-80
2022/08/06 02:08:52;;;;;;;7.80;7.13;;;11.40;99.90;;;;;;2608531;54;20423;-80
2022/08/06 02:11:18;;;;;;;12.03;7.83;;;11.40;99.90;;;;;;2607894;54;22285;-79
2022/08/06 02:13:46;;;;;;;9.00;7.43;;;11.40;99.90;;;;;;2607968;47;21583;-79
2022/08/06 02:16:13;;;;;;;8.60;8.00;;;11.20;99.90;;;;;;2608880;39;20806;-78
2022/08/06 02:18:45;;;;;;;9.10;8.03;;;11.30;99.90;;;;;;2608575;54;20463;-79
2022/08/06 02:21:16;;;;;;;8.73;7.30;;;11.30;99.90;;;;;;2607985;39;20897;-79
2022/08/06 02:23:43;;;;;;;8.77;8.07;;;11.30;99.90;;;;;;2606757;54;20972;-79
2022/08/06 02:26:10;;;;;;;8.83;8.03;;;11.30;99.90;;;;;;2608965;54;20407;-79
2022/08/06 02:28:37;;;;;;;14.00;8.30;;;11.40;99.90;;;;;;2609344;39;20920;-79
2022/08/06 02:31:04;;;;;;;8.10;7.30;;;11.20;99.90;;;;;;2607781;54;20439;-80
2022/08/06 02:33:30;;;;;;;11.33;8.00;;;11.20;99.90;;;;;;2608777;54;20456;-78
2022/08/06 02:36:16;;;;;;;9.47;8.50;;;11.10;99.90;;;;;;2607834;54;20419;-78
2022/08/06 02:38:49;;;;;;;8.57;7.53;;;10.90;99.90;;;;;;2607908;54;20411;-78
2022/08/06 02:41:31;;;;;;;9.50;7.60;;;10.80;99.90;;;;;;2611555;54;20419;-78
2022/08/06 02:44:04;;;;;;;7.40;6.90;;;11.00;99.90;;;;;;2614294;54;20423;-78
2022/08/06 02:46:36;;;;;;;9.07;7.40;;;11.00;99.90;;;;;;2610794;54;20439;-78
2022/08/06 02:49:10;;;;;;;8.93;8.13;;;10.90;99.90;;;;;;2614264;54;20398;-79
2022/08/06 02:51:44;;;;;;;9.03;8.30;;;11.00;99.90;;;;;;2614273;54;20487;-78
2022/08/06 02:54:19;;;;;;;8.47;7.77;;;11.00;99.90;;;;;;2613297;54;20426;-80
2022/08/06 02:56:48;;;;;;;8.90;8.30;;;11.10;99.90;;;;;;2614159;54;21217;-80
2022/08/06 02:59:21;;;;;;;9.73;8.83;;;11.00;99.90;;;;;;2614219;54;20956;-85
2022/08/06 03:01:54;;;;;;;8.07;7.20;;;11.10;99.90;;;;;;2613012;54;20419;-85
2022/08/06 03:04:23;;;;;;;9.90;8.83;;;11.00;99.90;;;;;;2615082;54;20411;-86
2022/08/06 03:06:50;;;;;;;9.30;8.43;;;11.00;99.90;;;;;;2615118;54;20421;-87
2022/08/06 03:09:18;;;;;;;9.57;8.57;;;11.00;99.90;;;;;;2613597;54;20454;-80
2022/08/06 03:11:45;;;;;;;10.17;8.37;;;11.20;99.90;;;;;;2610668;54;20428;-81
2022/08/06 03:14:13;;;;;;;10.87;8.53;;;11.30;99.90;;;;;;2608895;46;20409;-81
2022/08/06 03:16:41;;;;;;;9.20;8.40;;;11.20;99.90;;;;;;2609113;39;20515;-81
2022/08/06 03:19:09;;;;;;;12.97;9.33;;;11.00;99.90;;;;;;2608560;54;20406;-81
2022/08/06 03:21:36;;;;;;;8.60;8.00;;;10.90;99.90;;;;;;2608948;54;21965;-81
2022/08/06 03:24:03;;;;;;;8.27;7.30;;;10.80;99.90;;;;;;2609043;39;21527;-80
2022/08/06 03:26:31;;;;;;;10.00;9.10;;;10.60;99.90;;;;;;2609104;46;20414;-81
2022/08/06 03:28:59;;;;;;;9.63;8.73;;;10.60;99.90;;;;;;2608710;54;20411;-81
2022/08/06 03:31:26;;;;;;;9.93;9.03;;;10.50;99.90;;;;;;2608729;54;20418;-81
2022/08/06 03:33:53;;;;;;;9.77;8.90;;;10.50;99.90;;;;;;2608366;54;20410;-81
2022/08/06 03:36:21;;;;;;;11.80;9.03;;;10.60;99.90;;;;;;2609536;39;20784;-81
2022/08/06 03:38:53;;;;;;;10.30;8.80;;;10.70;99.90;;;;;;2609449;54;20488;-81
2022/08/06 03:41:19;;;;;;;10.50;9.60;;;10.60;99.90;;;;;;2609040;54;20430;-80
2022/08/06 03:43:45;;;;;;;10.70;9.37;;;10.60;99.90;;;;;;2609840;39;20563;-81
2022/08/06 03:46:15;;;;;;;11.90;9.60;;;10.60;99.90;;;;;;2607307;47;20398;-80
2022/08/06 03:48:43;;;;;;;8.80;8.00;;;10.50;99.90;;;;;;2608337;54;21694;-81
2022/08/06 03:51:23;;;;;;;11.17;10.07;;;10.50;99.90;;;;;;2608089;47;20438;-81
2022/08/06 03:53:51;;;;;;;9.53;8.60;;;10.50;99.90;;;;;;2608473;39;20811;-81
2022/08/06 03:56:22;;;;;;;11.93;8.90;;;10.30;99.90;;;;;;2609152;47;20457;-81
2022/08/06 03:58:51;;;;;;;15.10;9.70;;;10.50;99.90;;;;;;2609099;39;20992;-81
2022/08/06 04:01:22;;;;;;;10.20;8.73;;;10.30;99.90;;;;;;2607933;47;20996;-81
2022/08/06 04:03:48;;;;;;;11.23;10.10;;;10.40;99.90;;;;;;2608599;47;21450;-83
2022/08/06 04:06:16;;;;;;;14.77;9.93;;;10.40;99.90;;;;;;2609255;54;20419;-81
2022/08/06 04:08:42;;;;;;;14.27;10.53;;;10.40;99.90;;;;;;2609491;46;20762;-82
2022/08/06 04:11:08;;;;;;;14.30;10.70;;;10.40;99.90;;;;;;2609154;47;20418;-80
2022/08/06 04:13:36;;;;;;;16.03;11.13;;;10.50;99.90;;;;;;2608286;54;20452;-80
2022/08/06 04:16:02;;;;;;;18.30;10.00;;;10.50;99.90;;;;;;2609332;54;20407;-80
2022/08/06 04:18:32;;;;;;;10.90;9.87;;;10.70;99.90;;;;;;2608515;39;20474;-80
2022/08/06 04:21:04;;;;;;;18.10;10.10;;;10.60;99.90;;;;;;2609051;54;20424;-79
2022/08/06 04:23:30;;;;;;;21.33;10.83;;;10.50;99.90;;;;;;2608872;54;20428;-80
2022/08/06 04:25:58;;;;;;;10.17;9.03;;;10.60;99.90;;;;;;2609319;54;20554;-79
2022/08/06 04:28:26;;;;;;;10.90;8.50;;;10.70;99.90;;;;;;2609288;54;21138;-79
2022/08/06 04:30:53;;;;;;;11.83;10.27;;;10.70;99.90;;;;;;2608136;54;20456;-80
2022/08/06 04:33:21;;;;;;;12.67;10.00;;;10.80;99.90;;;;;;2609127;39;20518;-80
2022/08/06 04:35:48;;;;;;;16.93;10.17;;;10.80;99.90;;;;;;2608826;39;20836;-80
2022/08/06 04:38:17;;;;;;;9.80;8.80;;;10.80;99.90;;;;;;2608663;54;20419;-80
2022/08/06 04:40:43;;;;;;;10.57;9.60;;;10.90;99.90;;;;;;2607487;39;20772;-80
2022/08/06 04:43:10;;;;;;;9.50;8.60;;;11.00;99.90;;;;;;2609416;39;20620;-80
2022/08/06 04:45:38;;;;;;;11.97;8.90;;;11.00;99.90;;;;;;2609488;39;20473;-80
2022/08/06 04:48:06;;;;;;;10.37;9.20;;;11.10;99.90;;;;;;2607557;54;20423;-80
2022/08/06 04:50:32;;;;;;;10.50;9.10;;;11.10;99.90;;;;;;2608098;54;20410;-80
2022/08/06 04:53:13;;;;;;;10.60;9.27;;;11.10;99.90;;;;;;2607530;54;20443;-80
2022/08/06 04:55:40;;;;;;;9.40;8.50;;;11.30;99.90;;;;;;2608290;46;20551;-79
2022/08/06 04:58:07;;;;;;;10.20;9.30;;;11.40;99.90;;;;;;2608893;39;21441;-80
2022/08/06 05:00:46;;;;;;;34.57;11.23;;;11.40;99.90;;;;;;2607203;39;20520;-80
2022/08/06 05:03:12;;;;;;;10.80;9.40;;;11.60;99.90;;;;;;2609099;54;20418;-80
2022/08/06 05:05:44;;;;;;;14.83;8.93;;;11.70;99.90;;;;;;2609310;54;20402;-80
2022/08/06 05:08:12;;;;;;;9.90;8.90;;;11.80;99.90;;;;;;2608847;54;20785;-80
2022/08/06 05:10:46;;;;;;;9.77;8.87;;;11.90;99.90;;;;;;2608250;46;20423;-80
2022/08/06 05:13:14;;;;;;;10.53;8.47;;;12.10;99.90;;;;;;2607251;54;20401;-81
2022/08/06 05:15:43;;;;;;;9.73;8.87;;;12.20;99.90;;;;;;2609104;54;20403;-80
2022/08/06 05:18:33;;;;;;;10.30;9.20;;;12.40;99.90;;;;;;2608386;54;20447;-81
2022/08/06 05:21:00;;;;;;;10.40;9.50;;;12.60;99.90;;;;;;2612514;54;20431;-81
2022/08/06 05:23:35;;;;;;;13.33;8.30;;;12.80;99.90;;;;;;2614459;54;20567;-82
2022/08/06 05:26:01;;;;;;;9.77;8.47;;;13.00;99.90;;;;;;2613970;54;20419;-78
2022/08/06 05:28:26;;;;;;;8.87;7.97;;;13.20;99.90;;;;;;2613931;54;20444;-80
2022/08/06 05:30:53;;;;;;;8.17;7.40;;;13.40;99.90;;;;;;2614700;54;21456;-85
2022/08/06 05:33:26;;;;;;;10.50;7.63;;;13.90;99.90;;;;;;2615892;47;20162;-85
2022/08/06 05:35:51;;;;;;;9.13;8.33;;;14.50;99.90;;;;;;2612180;39;20680;-84
2022/08/06 05:38:17;;;;;;;8.57;7.77;;;14.40;99.90;;;;;;2609201;54;20917;-83
2022/08/06 05:40:44;;;;;;;7.50;6.90;;;14.80;99.90;;;;;;2608517;54;20152;-85
2022/08/06 05:43:10;;;;;;;7.53;6.83;;;15.70;99.90;;;;;;2609392;39;20229;-85
2022/08/06 05:45:38;;;;;;;9.50;6.93;;;16.30;99.90;;;;;;2609120;54;21434;-84
2022/08/06 05:48:05;;;;;;;7.47;6.47;;;15.50;99.90;;;;;;2609330;39;20599;-84
2022/08/06 05:50:37;;;;;;;9.73;7.80;;;16.00;99.90;;;;;;2609131;39;20486;-84
2022/08/06 05:53:19;;;;;;;8.23;7.50;;;16.50;99.90;;;;;;2609841;54;20476;-84
2022/08/06 05:55:59;;;;;;;10.00;7.53;;;16.20;99.90;;;;;;2607856;54;20431;-85
2022/08/06 05:58:44;;;;;;;11.70;7.13;;;16.40;99.90;;;;;;2608286;54;20425;-85
2022/08/06 06:01:11;;;;;;;7.77;6.97;;;17.00;99.90;;;;;;2607003;54;20439;-84
2022/08/06 06:03:38;;;;;;;7.60;7.03;;;16.90;99.90;;;;;;2606898;39;20815;-85
2022/08/06 06:06:05;;;;;;;11.50;7.77;;;16.70;99.90;;;;;;2608099;47;20452;-84
2022/08/06 06:08:31;;;;;;;7.87;7.17;;;17.10;99.90;;;;;;2611684;31;20505;-84
2022/08/06 06:10:57;;;;;;;8.10;7.40;;;17.50;99.90;;;;;;2615383;39;20559;-85
2022/08/06 06:13:24;;;;;;;9.60;7.27;;;17.10;99.90;;;;;;2617024;54;20177;-85
2022/08/06 06:16:12;;;;;;;8.40;7.63;;;17.20;99.90;;;;;;2617905;54;20642;-84
2022/08/06 06:19:11;;;;;;;8.73;7.40;;;18.10;98.80;;;;;;2607030;54;20466;-84
2022/08/06 06:21:46;;;;;;;7.37;6.77;;;18.00;87.50;;;;;;2603915;39;20807;-86
2022/08/06 06:24:30;;;;;;;9.07;8.23;;;17.40;89.60;;;;;;2606445;39;20484;-86
2022/08/06 06:27:03;;;;;;;8.13;7.53;;;17.50;94.30;;;;;;2606289;47;21273;-86
2022/08/06 06:30:10;;;;;;;9.00;8.10;;;17.10;93.50;;;;;;2606202;54;20419;-86
2022/08/06 06:33:01;;;;;;;7.93;7.13;;;17.70;96.20;;;;;;2606268;54;21597;-86
2022/08/06 06:35:41;;;;;;;8.60;7.73;;;18.30;85.90;;;;;;2605057;54;20497;-85
2022/08/06 06:38:59;;;;;;;10.23;7.17;;;18.10;82.30;;;;;;2606401;54;20976;-85
2022/08/06 06:41:50;;;;;;;7.67;7.07;;;18.40;77.40;;;;;;2606079;39;20513;-85
2022/08/06 06:44:23;;;;;;;10.73;7.50;;;18.50;77.30;;;;;;2607033;39;20924;-84
2022/08/06 06:46:58;;;;;;;7.33;6.83;;;17.90;76.00;;;;;;2607494;54;20490;-85
2022/08/06 06:49:47;;;;;;;7.10;6.60;;;18.90;74.80;;;;;;2607767;54;20459;-86
2022/08/06 06:52:30;;;;;;;7.80;6.90;;;19.80;53.10;;;;;;2607157;47;20423;-85
2022/08/06 06:54:59;;;;;;;7.57;6.87;;;20.00;46.50;;;;;;2607040;54;20426;-84
2022/08/06 06:57:31;;;;;;;6.90;6.50;;;19.60;45.40;;;;;;2605941;47;20457;-85
2022/08/06 07:00:01;;;;;;;7.20;6.40;;;18.70;46.50;;;;;;2607460;54;20521;-84
2022/08/06 07:02:29;;;;;;;9.50;6.30;;;19.60;48.00;;;;;;2605614;54;20567;-85
2022/08/06 07:04:56;;;;;;;6.87;6.20;;;19.50;43.70;;;;;;2606634;54;20442;-83
2022/08/06 07:07:23;;;;;;;6.30;6.00;;;19.20;41.90;;;;;;2607118;54;20439;-82
2022/08/06 07:09:51;;;;;;;6.50;6.10;;;20.00;39.10;;;;;;2606206;54;21031;-85
2022/08/06 07:12:20;;;;;;;6.73;6.33;;;20.40;37.10;;;;;;2607304;54;20411;-84
2022/08/06 07:14:47;;;;;;;6.57;6.00;;;19.90;33.80;;;;;;2608103;54;20515;-83
2022/08/06 07:17:14;;;;;;;6.40;5.80;;;20.00;36.30;;;;;;2609313;39;20478;-82
2022/08/06 07:19:41;;;;;;;6.43;6.03;;;20.30;31.70;;;;;;2608749;39;21154;-82
2022/08/06 07:22:09;;;;;;;6.30;5.80;;;19.70;29.80;;;;;;2608268;54;20435;-82
2022/08/06 07:24:37;;;;;;;5.67;5.37;;;20.30;28.60;;;;;;2608930;47;20549;-83
2022/08/06 07:27:03;;;;;;;6.27;5.80;;;19.80;27.20;;;;;;2611026;54;20426;-83
2022/08/06 07:29:30;;;;;;;6.27;5.77;;;20.70;28.90;;;;;;2614792;54;20450;-83
2022/08/06 07:31:58;;;;;;;6.00;5.60;;;20.90;24.00;;;;;;2614874;54;20423;-84
2022/08/06 07:34:25;;;;;;;6.30;6.00;;;20.50;24.00;;;;;;2615299;54;20518;-77
2022/08/06 07:36:55;;;;;;;5.80;5.50;;;20.90;24.90;;;;;;2614512;54;20407;-77
2022/08/06 07:39:29;;;;;;;8.40;5.80;;;20.80;23.80;;;;;;2613892;54;21000;-79
2022/08/06 07:41:58;;;;;;;6.43;5.83;;;20.60;24.90;;;;;;2610904;54;20416;-79
2022/08/06 07:44:27;;;;;;;6.40;6.10;;;20.60;20.70;;;;;;2609126;54;20418;-79
2022/08/06 07:46:56;;;;;;;6.13;5.83;;;20.50;20.90;;;;;;2608796;54;20449;-79
2022/08/06 07:49:26;;;;;;;6.17;5.87;;;20.30;17.60;;;;;;2609217;54;20415;-79
2022/08/06 07:51:55;;;;;;;6.30;5.70;;;19.60;19.40;;;;;;2607864;54;20443;-79
2022/08/06 07:54:23;;;;;;;8.33;7.63;;;21.00;17.60;;;;;;2609622;39;20506;-81
2022/08/06 07:56:48;;;;;;;5.73;5.53;;;21.10;15.50;;;;;;2608660;54;22458;-79
2022/08/06 07:59:15;;;;;;;6.03;5.70;;;21.40;15.00;;;;;;2606971;31;20599;-80
2022/08/06 08:01:42;;;;;;;6.47;6.17;;;21.50;14.70;;;;;;2607163;54;20160;-80
2022/08/06 08:06:53;;;;;;;5.80;5.57;;;21.40;14.40;;;;;;2607108;47;20418;-79
2022/08/06 08:09:21;;;;;;;6.87;6.37;;;21.50;13.20;;;;;;2608105;54;20428;-79
2022/08/06 08:11:49;;;;;;;6.53;5.90;;;21.40;11.00;;;;;;2607270;54;20435;-79
2022/08/06 08:14:18;;;;;;;5.87;5.37;;;20.90;14.90;;;;;;2607485;54;20530;-79
2022/08/06 08:16:43;;;;;;;5.60;5.40;;;21.50;14.00;;;;;;2607819;54;20423;-80
2022/08/06 08:19:33;;;;;;;6.10;5.77;;;20.10;13.00;;;;;;2606588;54;20485;-80
2022/08/06 08:22:05;;;;;;;6.30;5.90;;;21.00;12.60;;;;;;2599347;54;20256;-79
2022/08/06 08:24:32;;;;;;;6.17;5.80;;;21.60;10.40;;;;;;2604349;31;20592;-78
2022/08/06 08:26:59;;;;;;;6.70;6.30;;;21.50;11.60;;;;;;2607465;39;20531;-79
2022/08/06 08:29:25;;;;;;;5.47;5.27;;;22.40;10.50;;;;;;2606272;54;20433;-81
2022/08/06 08:31:51;;;;;;;6.30;5.90;;;22.10;9.50;;;;;;2607398;46;20485;-80
2022/08/06 08:34:17;;;;;;;6.17;5.80;;;22.40;11.10;;;;;;2607413;54;20562;-79
2022/08/06 08:36:43;;;;;;;5.80;5.60;;;22.50;6.80;;;;;;2607714;54;20439;-80
2022/08/06 08:39:09;;;;;;;6.10;5.70;;;22.70;4.20;;;;;;2607808;39;20247;-81
2022/08/06 08:41:39;;;;;;;5.80;5.40;;;21.70;5.00;;;;;;2608171;54;20460;-80
2022/08/06 08:44:06;;;;;;;5.10;4.90;;;22.30;6.20;;;;;;2606075;54;20803;-80
2022/08/06 08:46:38;;;;;;;5.30;5.00;;;22.20;3.00;;;;;;2605718;54;20420;-78
2022/08/06 08:49:05;;;;;;;5.00;4.80;;;22.00;1.10;;;;;;2606060;47;20481;-79
2022/08/06 08:51:34;;;;;;;5.23;4.87;;;22.00;3.30;;;;;;2607028;54;20535;-79
2022/08/06 08:54:05;;;;;;;5.23;4.93;;;21.70;1.00;;;;;;2607048;39;21279;-78
2022/08/06 08:56:32;;;;;;;5.10;4.80;;;22.20;2.20;;;;;;2606871;54;20503;-79
2022/08/06 08:58:59;;;;;;;4.97;4.77;;;22.20;1.00;;;;;;2604493;39;20783;-78
2022/08/06 09:01:25;;;;;;;5.67;5.27;;;22.00;1.00;;;;;;2605544;54;20438;-79
2022/08/06 09:03:51;;;;;;;5.20;4.80;;;22.30;1.00;;;;;;2605137;54;20447;-78
2022/08/06 09:06:18;;;;;;;5.67;5.37;;;22.30;1.00;;;;;;2606347;47;20431;-78
2022/08/06 09:08:46;;;;;;;5.47;4.97;;;22.30;1.00;;;;;;2607368;54;20246;-79
2022/08/06 09:11:12;;;;;;;5.00;4.70;;;21.90;1.00;;;;;;2607530;54;20438;-78
2022/08/06 09:13:38;;;;;;;5.70;5.50;;;22.70;1.00;;;;;;2607520;54;20479;-79
2022/08/06 09:16:04;;;;;;;6.20;5.90;;;22.90;1.00;;;;;;2607707;46;20317;-77
2022/08/06 09:18:29;;;;;;;5.50;5.20;;;22.70;1.00;;;;;;2604590;54;20438;-79
2022/08/06 09:20:55;;;;;;;7.37;6.97;;;21.90;1.00;;;;;;2607568;54;20162;-78
2022/08/06 09:23:21;;;;;;;5.63;5.33;;;22.50;1.00;;;;;;2608662;54;20186;-77
2022/08/06 09:25:50;;;;;;;5.63;5.43;;;22.40;1.00;;;;;;2608660;54;20428;-79
2022/08/06 09:28:38;;;;;;;5.97;5.50;;;23.00;1.00;;;;;;2608862;54;20342;-79
2022/08/06 09:31:06;;;;;;;5.57;5.20;;;23.30;1.00;;;;;;2607734;47;20408;-80
2022/08/06 09:33:34;;;;;;;6.10;5.90;;;23.60;1.00;;;;;;2607787;39;20768;-79
2022/08/06 09:36:03;;;;;;;6.20;5.90;;;22.90;1.00;;;;;;2605645;54;20418;-79
2022/08/06 09:38:29;;;;;;;11.63;6.50;;;23.40;1.00;;;;;;2606360;54;20426;-79
2022/08/06 09:41:03;;;;;;;6.37;5.97;;;23.70;1.00;;;;;;2605197;54;21246;-77
2022/08/06 09:43:29;;;;;;;6.43;6.13;;;23.60;1.00;;;;;;2605833;39;20538;-77
2022/08/06 09:45:55;;;;;;;6.00;5.80;;;23.10;1.00;;;;;;2606793;54;20445;-77
2022/08/06 09:48:20;;;;;;;8.40;6.20;;;23.00;1.00;;;;;;2606867;54;20671;-78
2022/08/06 09:50:46;;;;;;;6.30;6.00;;;22.90;1.00;;;;;;2606030;54;21425;-79
2022/08/06 09:53:13;;;;;;;6.37;6.10;;;23.20;1.00;;;;;;2604222;47;20326;-77
2022/08/06 09:55:39;;;;;;;6.10;5.80;;;21.90;1.00;;;;;;2605309;39;20192;-77
2022/08/06 09:58:06;;;;;;;5.90;5.50;;;20.30;1.00;;;;;;2607125;54;20584;-78
2022/08/06 10:00:34;;;;;;;5.90;5.60;;;22.40;1.00;;;;;;2603717;47;21034;-78
2022/08/06 10:03:08;;;;;;;6.10;5.70;;;22.70;1.00;;;;;;2607120;54;20416;-78
2022/08/06 10:05:34;;;;;;;6.40;5.80;;;24.00;1.00;;;;;;2606533;54;20480;-78
2022/08/06 10:08:12;;;;;;;5.40;5.20;;;23.70;1.00;;;;;;2608334;54;20425;-79
2022/08/06 10:10:43;;;;;;;6.30;5.80;;;23.70;1.00;;;;;;2607822;54;20428;-78
2022/08/06 10:13:25;;;;;;;5.40;5.20;;;23.90;1.00;;;;;;2607989;54;20433;-79
2022/08/06 10:15:53;;;;;;;5.30;5.10;;;23.90;1.00;;;;;;2608690;39;20510;-80
2022/08/06 10:18:42;;;;;;;5.60;5.40;;;24.90;1.00;;;;;;2607158;54;20413;-79
2022/08/06 10:21:16;;;;;;;6.20;5.80;;;24.30;1.00;;;;;;2605725;39;20933;-78
2022/08/06 10:23:46;;;;;;;6.10;5.80;;;25.00;1.00;;;;;;2607486;54;20460;-79
2022/08/06 10:26:18;;;;;;;6.43;6.23;;;25.40;1.00;;;;;;2607201;54;20441;-78
2022/08/06 10:28:44;;;;;;;6.53;6.30;;;24.60;1.00;;;;;;2607030;54;20409;-78
2022/08/06 10:31:12;;;;;;;5.47;5.27;;;23.20;1.00;;;;;;2606755;47;20813;-78
2022/08/06 10:34:08;;;;;;;6.70;6.40;;;23.50;1.00;;;;;;2607462;54;20506;-78
2022/08/06 10:37:05;;;;;;;6.10;5.70;;;24.00;1.00;;;;;;2605743;54;20566;-78
2022/08/06 10:39:36;;;;;;;6.77;6.30;;;24.00;1.00;;;;;;2605151;54;20461;-78
2022/08/06 10:42:03;;;;;;;6.90;6.50;;;24.10;1.00;;;;;;2604308;39;20850;-79
2022/08/06 10:44:30;;;;;;;7.10;6.80;;;23.60;1.00;;;;;;2604786;54;20418;-79
2022/08/06 10:46:55;;;;;;;8.20;7.50;;;24.30;1.00;;;;;;2602601;54;21160;-79
2022/08/06 10:49:22;;;;;;;6.40;6.20;;;23.20;1.00;;;;;;2601885;54;20420;-79
2022/08/06 10:51:51;;;;;;;6.70;6.30;;;23.20;1.00;;;;;;2601970;39;20234;-78
2022/08/06 10:54:17;;;;;;;6.37;6.07;;;24.00;1.00;;;;;;2603382;39;20921;-78
2022/08/06 10:56:44;;;;;;;6.50;6.13;;;22.50;1.00;;;;;;2608168;54;20428;-78
2022/08/06 10:59:13;;;;;;;7.20;6.90;;;24.30;1.00;;;;;;2604086;54;21194;-78
2022/08/06 11:01:57;;;;;;;7.60;7.30;;;23.70;1.00;;;;;;2604324;54;20432;-78
2022/08/06 11:04:41;;;;;;;7.93;7.50;;;22.70;1.00;;;;;;2604302;54;20435;-78
2022/08/06 11:07:40;;;;;;;7.40;7.00;;;22.40;1.00;;;;;;2604907;47;20486;-79
2022/08/06 11:10:23;;;;;;;7.13;6.83;;;23.20;1.00;;;;;;2607600;39;20808;-76
2022/08/06 11:12:58;;;;;;;7.83;7.33;;;23.60;1.00;;;;;;2608862;47;21002;-77
2022/08/06 11:15:24;;;;;;;6.80;6.50;;;24.60;1.00;;;;;;2607641;54;20473;-78
2022/08/06 11:17:53;;;;;;;6.10;5.80;;;25.10;1.00;;;;;;2609178;54;20449;-79
2022/08/06 11:20:36;;;;;;;6.20;6.00;;;24.80;1.00;;;;;;2610559;54;20413;-82
2022/08/06 11:23:22;;;;;;;6.30;6.00;;;24.80;1.00;;;;;;2609931;54;20451;-83
2022/08/06 11:25:53;;;;;;;5.77;5.57;;;24.80;1.00;;;;;;2604583;54;20952;-83
2022/08/06 11:28:27;;;;;;;5.80;5.60;;;25.00;1.00;;;;;;2610352;54;20402;-82
2022/08/06 11:30:55;;;;;;;5.73;5.43;;;25.60;1.00;;;;;;2609873;54;20430;-83
2022/08/06 11:33:42;;;;;;;5.90;5.70;;;25.90;1.00;;;;;;2608038;54;20432;-83
2022/08/06 11:36:10;;;;;;;6.00;5.70;;;25.30;1.00;;;;;;2609142;54;20423;-78
2022/08/06 11:38:48;;;;;;;5.93;5.73;;;22.80;1.00;;;;;;2609994;39;20796;-82
2022/08/06 11:41:28;;;;;;;7.00;6.70;;;24.80;1.00;;;;;;2607760;54;20415;-81
2022/08/06 11:43:56;;;;;;;6.90;6.20;;;25.40;1.00;;;;;;2610916;54;20432;-82
2022/08/06 11:46:25;;;;;;;5.50;5.10;;;24.60;1.00;;;;;;2612640;39;21098;-83
2022/08/06 11:49:00;;;;;;;5.53;5.20;;;23.60;1.00;;;;;;2610430;54;20477;-79
2022/08/06 11:51:50;;;;;;;5.23;5.00;;;22.90;1.00;;;;;;2609897;54;20545;-78
2022/08/06 11:54:18;;;;;;;5.00;4.80;;;22.80;1.00;;;;;;2609822;46;20447;-77
2022/08/06 11:57:01;;;;;;;5.43;5.23;;;24.50;1.00;;;;;;2610927;54;20496;-76
2022/08/06 12:00:12;;;;;;;5.87;5.60;;;25.10;1.00;;;;;;2603229;54;20494;-77
2022/08/06 12:02:45;;;;;;;5.73;5.50;;;24.30;1.00;;;;;;2603355;54;21402;-77
2022/08/06 12:05:14;;;;;;;6.10;5.80;;;24.40;1.00;;;;;;2604114;54;20399;-78
2022/08/06 12:07:41;;;;;;;6.20;5.90;;;25.80;1.00;;;;;;2603967;39;21189;-78
2022/08/06 12:10:07;;;;;;;6.07;5.77;;;26.50;1.00;;;;;;2604055;54;21358;-77
2022/08/06 12:12:43;;;;;;;6.17;5.87;;;25.20;1.00;;;;;;2604280;54;20412;-77
2022/08/06 12:15:11;;;;;;;6.20;5.90;;;24.50;1.00;;;;;;2603865;54;20165;-76
2022/08/06 12:17:38;;;;;;;6.27;6.00;;;24.70;1.00;;;;;;2604843;39;20608;-77
2022/08/06 12:20:05;;;;;;;6.30;6.10;;;23.50;1.00;;;;;;2603488;54;21116;-76
2022/08/06 12:22:33;;;;;;;6.17;5.97;;;23.60;1.00;;;;;;2602713;54;20416;-77
2022/08/06 12:25:00;;;;;;;5.80;5.53;;;23.40;1.00;;;;;;2602746;54;20448;-77
2022/08/06 12:27:35;;;;;;;5.90;5.57;;;23.10;1.00;;;;;;2605341;39;20560;-77
2022/08/06 12:30:02;;;;;;;6.30;6.00;;;23.10;1.00;;;;;;2603295;54;20409;-77
2022/08/06 12:32:34;;;;;;;5.60;5.40;;;22.90;1.00;;;;;;2604193;54;20527;-77
2022/08/06 12:35:09;;;;;;;5.47;5.27;;;22.70;1.00;;;;;;2604611;39;20506;-77
2022/08/06 12:37:43;;;;;;;5.60;5.30;;;22.60;1.00;;;;;;2602701;39;20726;-77
2022/08/06 12:40:26;;;;;;;5.50;5.20;;;22.50;1.00;;;;;;2603339;54;20428;-77
2022/08/06 12:42:53;;;;;;;5.30;5.10;;;23.00;1.00;;;;;;2606570;39;20813;-77
2022/08/06 12:45:26;;;;;;;5.47;5.23;;;23.20;1.00;;;;;;2605310;39;20746;-78
2022/08/06 12:48:00;;;;;;;5.60;5.40;;;23.00;1.00;;;;;;2603753;39;20712;-76
2022/08/06 12:50:27;;;;;;;5.20;5.00;;;23.70;1.00;;;;;;2602933;54;20458;-76
2022/08/06 12:53:03;;;;;;;5.50;5.20;;;24.10;1.00;;;;;;2605178;54;20407;-76
2022/08/06 12:55:33;;;;;;;5.80;5.30;;;22.80;1.00;;;;;;2603068;54;21081;-76
2022/08/06 12:58:00;;;;;;;5.40;5.20;;;23.90;1.00;;;;;;2604803;54;20462;-76
2022/08/06 13:00:27;;;;;;;5.87;5.57;;;24.00;1.00;;;;;;2609493;54;20432;-77
2022/08/06 13:02:53;;;;;;;6.63;5.97;;;24.60;1.00;;;;;;2610776;54;20422;-77
2022/08/06 13:05:21;;;;;;;5.50;5.30;;;25.20;1.00;;;;;;2613601;54;20465;-77
2022/08/06 13:07:47;;;;;;;5.70;5.30;;;23.90;1.00;;;;;;2613815;54;20425;-78
2022/08/06 13:10:13;;;;;;;5.30;5.10;;;23.70;1.00;;;;;;2614249;39;20692;-77